Port Alsworth, AK

8:47 AM AKDT on July 26, 2017 (GMT -0800)
Port Alsworth | | Change Station

Elev 266 ft 60.20 °N, 154.30 °W | Updated 1 hour ago

Overcast
Overcast
52 °F
Feels Like 52 °F
N
5
Wind Variable Wind from SW

Today
High -- | Low -- °F
--% Chance of Precip.
Yesterday
High -- | Low -- °F
Precip. -- in
Pressure 29.86 in
Visibility 10.0 miles
Clouds Scattered Clouds 600 ft
Overcast 5000 ft
Dew Point 50 °F
Humidity 94%
Rainfall 0.00 in
Snow Depth Not available.
5:43 AM 11:02 PM
Waxing Crescent, 14% visible
METAR PALJ 261501Z 23004KT 10SM SCT006 OVC050 11/10 A2986 RMK FIRST EST PASS CLSD NOSPECI
Pressure 29.86 in
Visibility 10.0 miles
Clouds Scattered Clouds 600 ft
Overcast 5000 ft
Dew Point 50 °F
Humidity 94%
Rainfall 0.00 in
Snow Depth Not available.
5:43 AM 11:02 PM
Waxing Crescent, 14% visible
METAR PALJ 261501Z 23004KT 10SM SCT006 OVC050 11/10 A2986 RMK FIRST EST PASS CLSD NOSPECI

Get Severe Weather Alerts

Thanks for signing up!

Be on the lookout for a verification email in your inbox.

You'll start receiving the daily forecast at 6 AM.

×

10-Day Weather Forecast

Almanac

Astronomy

Jul. 26, 2017 Rise Set
Actual Time
Civil Twilight
Nautical Twilight
Astronomical Twilight
Moon
Length of Visible Light
Length of Day
Tomorrow will be .
, % of the Moon is Illuminated

Today's Extremes

State Highs State Lows

Community

WunderPhotos

Category 6

Welcome to Category 6. This is the collective home for Weather Underground's featured writeups by Dr. Jeff Masters (right), Bob Henson (left), Chris Burt, and other regular contributors.

Nearby

Air Quality

  Air Quality AQ Index Pollutant
Not available.

Snow Depth

Station Depth Elevation

Earthquake Activity

City Distance Mag. Time & Date
Minimum magnitude displayed is 2.5.

Coastal Water Temperatures

Place Temperature

Stations

Nearby Weather Stations

Station Location Temp. Windchill Dew Point Humidity Wind Precip. Elev Updated Type
                   

Watches & Warnings

There are currently no watches in effect.